Elmwood Park, New Jersey
Current Conditions -  °F | °C
As of 4:51 PM on Sunday 21 Dec 2014 (Local Time) from KTEB Reporting Station
Overcast Overcast  
Wind Chill: 30°   Ceiling: 3400
Heat Index: 36°   Visibility: 10mi
Dew Point: 26°   Wind: 8mph
Humidity: 67%   Direction: 350°N
Pressure: 30.29"   Gusts: NA
Location:  40.9°N, 74.12°W
Report Text: KTEB 212151Z 35007KT 10SM FEW024 OVC034 02/M03 A3029 RMK AO2 SLP258 T00221033
Loading
Personal Weather Stations






























Interactive Weather Map New forecast layout! Learn more

10-Day Weather Forecast

Advertisements
Track Severe Weather on mobile